Time;durP1;ratioP1;P1;durP2;ratioP2;P2;SDS_P1;SDS_P2;PMS_P1;PMS_P2;Temp;Humidity;BMP_temperature;BMP_pressure;BME280_temperature;BME280_humidity;BME280_pressure;Samples;Min_cycle;Max_cycle;Signal;HPM_P1;HPM_P2
2023/06/06 00:00:28;;;;;;;3.30;2.33;;;;;;;;;;4988230;28;20220;-83
2023/06/06 00:02:54;;;;;;;3.13;2.40;;;;;;;;;;4987350;28;20263;-84
2023/06/06 00:05:20;;;;;;;2.88;2.58;;;;;;;;;;5018703;28;20230;-83
2023/06/06 00:07:49;;;;;;;2.60;2.40;;;;;;;;;;5017539;28;20236;-83
2023/06/06 00:10:15;;;;;;;2.65;2.35;;;;;;;;;;5027863;28;20219;-83
2023/06/06 00:12:47;;;;;;;3.00;2.47;;;;;;;;;;5000652;28;20228;-82
2023/06/06 00:15:14;;;;;;;2.53;2.33;;;;;;;;;;4996738;28;20307;-84
2023/06/06 00:17:42;;;;;;;3.63;2.47;;;;;;;;;;4985591;28;20220;-84
2023/06/06 00:20:11;;;;;;;4.70;2.45;;;;;;;;;;5016914;28;20227;-82
2023/06/06 00:22:42;;;;;;;4.00;2.40;;;;;;;;;;5028918;28;20259;-84
2023/06/06 00:25:11;;;;;;;2.90;2.53;;;;;;;;;;4994909;28;20224;-84
2023/06/06 00:27:37;;;;;;;2.97;2.33;;;;;;;;;;4991472;28;20311;-82
2023/06/06 00:30:03;;;;;;;5.72;2.92;;;;;;;;;;4986402;28;20478;-83
2023/06/06 00:32:28;;;;;;;3.08;2.60;;;;;;;;;;4992004;28;20221;-83
2023/06/06 00:34:54;;;;;;;2.88;2.67;;;;;;;;;;5002177;28;20228;-82
2023/06/06 00:37:20;;;;;;;2.90;2.42;;;;;;;;;;4999071;28;20281;-84
2023/06/06 00:39:48;;;;;;;2.88;2.20;;;;;;;;;;5007448;28;20214;-80
2023/06/06 00:42:14;;;;;;;3.50;2.35;;;;;;;;;;5013936;28;20224;-82
2023/06/06 00:44:40;;;;;;;2.60;2.40;;;;;;;;;;5030505;28;20207;-81
2023/06/06 00:47:08;;;;;;;2.78;2.42;;;;;;;;;;5017890;28;20243;-81
2023/06/06 00:49:33;;;;;;;2.88;2.33;;;;;;;;;;5001687;28;21002;-80
2023/06/06 00:52:05;;;;;;;2.40;2.20;;;;;;;;;;4995693;28;20877;-80
2023/06/06 00:54:31;;;;;;;2.78;2.15;;;;;;;;;;5023757;28;20292;-86
2023/06/06 00:56:57;;;;;;;2.85;2.30;;;;;;;;;;5004723;28;20212;-83
2023/06/06 00:59:25;;;;;;;2.75;2.45;;;;;;;;;;4992743;28;20288;-83
2023/06/06 01:01:50;;;;;;;2.88;2.58;;;;;;;;;;4979849;28;20221;-85
2023/06/06 01:04:17;;;;;;;2.50;2.30;;;;;;;;;;4997672;28;20232;-85
2023/06/06 01:06:45;;;;;;;3.17;2.33;;;;;;;;;;4984653;28;20224;-85
2023/06/06 01:09:11;;;;;;;3.30;2.47;;;;;;;;;;5003363;28;20218;-83
2023/06/06 01:11:45;;;;;;;2.47;2.17;;;;;;;;;;4988686;28;20251;-85
2023/06/06 01:14:29;;;;;;;2.92;2.63;;;;;;;;;;5023483;28;20236;-83
2023/06/06 01:16:57;;;;;;;3.58;2.30;;;;;;;;;;5011386;28;20228;-85
2023/06/06 01:19:27;;;;;;;2.83;2.38;;;;;;;;;;4992362;28;20243;-84
2023/06/06 01:21:56;;;;;;;2.78;2.30;;;;;;;;;;5013884;28;20725;-86
2023/06/06 01:24:22;;;;;;;2.80;2.47;;;;;;;;;;5017764;28;20284;-84
2023/06/06 01:26:51;;;;;;;2.60;2.40;;;;;;;;;;4990684;28;20224;-83
2023/06/06 01:29:21;;;;;;;2.83;2.58;;;;;;;;;;5006626;28;20232;-86
2023/06/06 01:31:55;;;;;;;2.40;2.20;;;;;;;;;;5005975;28;20224;-82
2023/06/06 01:34:32;;;;;;;4.15;2.30;;;;;;;;;;4986344;28;20219;-83
2023/06/06 01:37:09;;;;;;;4.72;2.38;;;;;;;;;;4978413;28;20224;-83
2023/06/06 01:39:35;;;;;;;2.47;2.28;;;;;;;;;;5006802;28;20334;-85
2023/06/06 01:42:09;;;;;;;2.35;2.10;;;;;;;;;;5004436;28;20238;-82
2023/06/06 01:44:37;;;;;;;3.42;2.38;;;;;;;;;;5008040;28;21399;-82
2023/06/06 01:47:03;;;;;;;2.65;2.25;;;;;;;;;;4991532;28;20220;-84
2023/06/06 01:49:32;;;;;;;2.67;2.38;;;;;;;;;;5019676;28;20821;-83
2023/06/06 01:52:00;;;;;;;3.15;2.42;;;;;;;;;;5017857;28;20303;-83
2023/06/06 01:54:26;;;;;;;2.67;2.22;;;;;;;;;;5006139;28;21401;-85
2023/06/06 01:56:54;;;;;;;3.58;2.20;;;;;;;;;;5000212;28;20235;-82
2023/06/06 01:59:22;;;;;;;2.35;2.15;;;;;;;;;;5001027;28;20494;-83
2023/06/06 02:01:48;;;;;;;2.58;2.38;;;;;;;;;;5003214;28;20228;-83
2023/06/06 02:04:17;;;;;;;2.53;2.33;;;;;;;;;;4989956;28;20217;-83
2023/06/06 02:06:45;;;;;;;3.55;2.42;;;;;;;;;;5014938;28;20224;-84
2023/06/06 02:09:11;;;;;;;2.60;2.40;;;;;;;;;;4991700;28;20219;-84
2023/06/06 02:11:39;;;;;;;2.67;2.47;;;;;;;;;;5006941;28;20308;-82
2023/06/06 02:14:04;;;;;;;2.70;2.50;;;;;;;;;;5033798;28;20224;-84
2023/06/06 02:16:32;;;;;;;3.03;2.28;;;;;;;;;;4985594;28;20228;-83
2023/06/06 02:19:00;;;;;;;3.22;2.25;;;;;;;;;;5016641;28;20680;-85
2023/06/06 02:21:30;;;;;;;2.60;2.40;;;;;;;;;;4986964;28;20229;-85
2023/06/06 02:23:58;;;;;;;3.05;2.50;;;;;;;;;;5015598;28;20316;-86
2023/06/06 02:26:28;;;;;;;2.78;2.50;;;;;;;;;;4995020;28;20238;-84
2023/06/06 02:28:53;;;;;;;4.10;2.70;;;;;;;;;;5003796;28;20224;-84
2023/06/06 02:31:26;;;;;;;2.60;2.40;;;;;;;;;;4996074;28;20212;-82
2023/06/06 02:33:52;;;;;;;3.90;2.80;;;;;;;;;;5014361;28;20242;-83
2023/06/06 02:36:18;;;;;;;2.58;2.35;;;;;;;;;;4988042;28;20232;-84
2023/06/06 02:38:44;;;;;;;2.47;2.27;;;;;;;;;;4985237;28;20216;-84
2023/06/06 02:41:10;;;;;;;2.90;2.60;;;;;;;;;;5004832;28;20249;-82
2023/06/06 02:43:39;;;;;;;2.95;2.53;;;;;;;;;;5001827;28;20229;-84
2023/06/06 02:46:08;;;;;;;2.92;2.60;;;;;;;;;;5001599;28;20278;-85
2023/06/06 02:48:33;;;;;;;4.50;3.00;;;;;;;;;;5002956;28;20221;-85
2023/06/06 02:51:03;;;;;;;3.38;2.60;;;;;;;;;;4986941;28;20240;-83
2023/06/06 02:53:32;;;;;;;3.08;2.78;;;;;;;;;;4994859;28;20212;-83
2023/06/06 02:56:00;;;;;;;3.08;2.78;;;;;;;;;;5016142;28;20216;-82
2023/06/06 02:58:31;;;;;;;3.93;2.70;;;;;;;;;;5015727;28;20205;-82
2023/06/06 03:00:57;;;;;;;2.60;2.40;;;;;;;;;;5004591;28;20243;-82
2023/06/06 03:03:23;;;;;;;4.38;2.70;;;;;;;;;;5030999;28;20233;-82
2023/06/06 03:05:52;;;;;;;3.92;3.00;;;;;;;;;;5001341;28;20220;-84
2023/06/06 03:08:20;;;;;;;3.30;3.00;;;;;;;;;;4973546;28;20311;-83
2023/06/06 03:10:46;;;;;;;3.03;2.73;;;;;;;;;;4969933;28;20248;-83
2023/06/06 03:13:12;;;;;;;3.55;2.80;;;;;;;;;;4971610;28;20244;-84
2023/06/06 03:15:40;;;;;;;2.60;2.40;;;;;;;;;;4985889;28;20232;-83
2023/06/06 03:18:18;;;;;;;2.88;2.67;;;;;;;;;;4971812;28;20220;-83
2023/06/06 03:20:53;;;;;;;2.58;2.38;;;;;;;;;;5011564;28;20263;-84
2023/06/06 03:23:24;;;;;;;3.47;2.40;;;;;;;;;;4999870;28;20246;-84
2023/06/06 03:25:55;;;;;;;3.38;2.72;;;;;;;;;;4987240;28;20226;-83
2023/06/06 03:28:22;;;;;;;4.75;2.75;;;;;;;;;;5001369;28;20950;-82
2023/06/06 03:30:49;;;;;;;3.33;3.03;;;;;;;;;;5017514;28;20239;-83
2023/06/06 03:33:15;;;;;;;3.08;2.80;;;;;;;;;;5002341;28;20216;-84
2023/06/06 03:35:42;;;;;;;3.45;3.00;;;;;;;;;;5007513;28;20239;-82
2023/06/06 03:38:08;;;;;;;3.38;2.72;;;;;;;;;;5003894;28;20733;-83
2023/06/06 03:40:34;;;;;;;2.92;2.72;;;;;;;;;;5002080;28;20242;-82
2023/06/06 03:43:05;;;;;;;2.88;2.60;;;;;;;;;;5003021;28;20224;-83
2023/06/06 03:45:32;;;;;;;3.47;2.75;;;;;;;;;;5002189;28;20212;-83
2023/06/06 03:48:00;;;;;;;3.58;2.90;;;;;;;;;;5034488;28;20228;-85
2023/06/06 03:50:25;;;;;;;3.60;3.08;;;;;;;;;;4997240;28;20212;-83
2023/06/06 03:52:51;;;;;;;3.30;3.00;;;;;;;;;;4980960;28;20755;-85
2023/06/06 03:55:17;;;;;;;3.00;2.70;;;;;;;;;;4996118;28;21534;-86
2023/06/06 03:57:42;;;;;;;3.63;2.80;;;;;;;;;;5006358;28;20573;-86
2023/06/06 04:00:13;;;;;;;3.03;2.75;;;;;;;;;;5006976;28;20291;-83
2023/06/06 04:02:41;;;;;;;3.22;2.92;;;;;;;;;;5005991;28;20231;-87
2023/06/06 04:05:09;;;;;;;2.83;2.60;;;;;;;;;;4984728;28;20220;-86
2023/06/06 04:07:37;;;;;;;4.93;2.97;;;;;;;;;;4988338;28;20251;-87
2023/06/06 04:10:02;;;;;;;3.03;2.72;;;;;;;;;;5005442;28;20232;-87
2023/06/06 04:12:30;;;;;;;3.20;2.90;;;;;;;;;;4988268;28;20236;-86
2023/06/06 04:15:00;;;;;;;2.60;2.40;;;;;;;;;;4999572;28;20228;-87
2023/06/06 04:17:26;;;;;;;3.28;2.92;;;;;;;;;;5006957;28;20221;-87
2023/06/06 04:19:55;;;;;;;2.90;2.70;;;;;;;;;;4995544;28;20231;-85
2023/06/06 04:22:22;;;;;;;3.95;3.25;;;;;;;;;;5001395;28;20217;-83
2023/06/06 04:24:49;;;;;;;3.47;3.08;;;;;;;;;;5016074;28;20261;-85
2023/06/06 04:27:16;;;;;;;4.97;2.97;;;;;;;;;;4984440;28;20224;-87
2023/06/06 04:29:43;;;;;;;3.28;2.97;;;;;;;;;;4991791;28;20220;-86
2023/06/06 04:32:10;;;;;;;3.40;3.10;;;;;;;;;;5009180;28;20223;-86
2023/06/06 04:34:45;;;;;;;4.15;2.97;;;;;;;;;;5003430;28;20240;-85
2023/06/06 04:37:17;;;;;;;3.30;2.95;;;;;;;;;;5016305;28;20224;-85
2023/06/06 04:39:52;;;;;;;3.45;3.10;;;;;;;;;;5018921;28;20208;-86
2023/06/06 04:42:23;;;;;;;3.30;3.00;;;;;;;;;;5000611;28;20220;-86
2023/06/06 04:44:49;;;;;;;3.67;3.08;;;;;;;;;;4998547;28;20319;-86
2023/06/06 04:47:18;;;;;;;3.75;3.08;;;;;;;;;;5000640;28;20231;-87
2023/06/06 04:49:46;;;;;;;4.82;2.97;;;;;;;;;;5001676;28;20220;-85
2023/06/06 04:52:15;;;;;;;3.50;3.08;;;;;;;;;;4998585;28;20224;-87
2023/06/06 04:54:41;;;;;;;5.18;2.90;;;;;;;;;;4999090;28;20620;-86
2023/06/06 04:57:15;;;;;;;4.47;2.88;;;;;;;;;;4985137;28;20600;-86
2023/06/06 04:59:41;;;;;;;3.10;2.80;;;;;;;;;;5034584;28;20232;-85
2023/06/06 05:02:07;;;;;;;3.28;2.97;;;;;;;;;;5027605;28;20248;-87
2023/06/06 05:04:32;;;;;;;3.58;2.92;;;;;;;;;;5023207;28;20257;-83
2023/06/06 05:06:58;;;;;;;3.58;2.92;;;;;;;;;;4997238;28;20693;-85
2023/06/06 05:09:24;;;;;;;3.40;2.85;;;;;;;;;;4980010;28;20227;-85
2023/06/06 05:11:54;;;;;;;3.10;2.72;;;;;;;;;;4977844;28;20232;-83
2023/06/06 05:14:23;;;;;;;3.38;3.08;;;;;;;;;;5007297;28;20256;-83
2023/06/06 05:16:55;;;;;;;3.13;2.83;;;;;;;;;;5013783;28;20230;-85
2023/06/06 05:19:21;;;;;;;2.78;2.58;;;;;;;;;;4999682;28;20727;-86
2023/06/06 05:21:47;;;;;;;3.50;3.20;;;;;;;;;;4999837;28;20302;-85
2023/06/06 05:24:14;;;;;;;3.05;2.78;;;;;;;;;;5013750;28;20216;-85
2023/06/06 05:26:39;;;;;;;3.78;2.80;;;;;;;;;;4982045;28;20243;-82
2023/06/06 05:29:05;;;;;;;3.00;2.70;;;;;;;;;;4996710;28;20248;-86
2023/06/06 05:31:33;;;;;;;3.47;2.80;;;;;;;;;;4996160;28;20232;-86
2023/06/06 05:33:59;;;;;;;4.25;2.92;;;;;;;;;;4978891;28;20215;-84
2023/06/06 05:36:24;;;;;;;3.28;2.80;;;;;;;;;;4983791;28;20602;-86
2023/06/06 05:38:50;;;;;;;2.78;2.55;;;;;;;;;;5016605;28;20220;-86
2023/06/06 05:41:20;;;;;;;3.22;2.67;;;;;;;;;;4996796;28;20258;-85
2023/06/06 05:43:45;;;;;;;4.00;2.83;;;;;;;;;;5000261;28;20224;-84
2023/06/06 05:46:11;;;;;;;3.17;2.88;;;;;;;;;;4996833;28;20215;-87
2023/06/06 05:48:37;;;;;;;3.22;2.70;;;;;;;;;;4982746;28;20216;-86
2023/06/06 05:51:03;;;;;;;3.15;2.33;;;;;;;;;;4989102;28;20216;-85
2023/06/06 05:53:28;;;;;;;3.42;2.63;;;;;;;;;;5004061;28;20227;-87
2023/06/06 05:55:54;;;;;;;2.60;2.40;;;;;;;;;;4996310;28;20220;-87
2023/06/06 05:58:21;;;;;;;2.92;2.67;;;;;;;;;;4980415;28;20239;-87
2023/06/06 06:00:47;;;;;;;2.95;2.40;;;;;;;;;;4990016;28;20212;-86
2023/06/06 06:03:15;;;;;;;2.50;2.17;;;;;;;;;;5000610;28;20216;-83
2023/06/06 06:05:41;;;;;;;2.60;2.40;;;;;;;;;;4986396;28;20227;-86
2023/06/06 06:08:07;;;;;;;4.35;2.70;;;;;;;;;;4973313;28;20289;-86
2023/06/06 06:10:34;;;;;;;2.78;2.58;;;;;;;;;;4980977;28;20225;-86
2023/06/06 06:13:02;;;;;;;3.10;2.33;;;;;;;;;;5004426;28;20219;-86
2023/06/06 06:15:33;;;;;;;3.33;2.30;;;;;;;;;;5015677;28;20216;-85
2023/06/06 06:18:02;;;;;;;4.43;2.63;;;;;;;;;;5000917;28;20594;-85
2023/06/06 06:20:28;;;;;;;2.40;2.20;;;;;;;;;;4996584;28;20323;-86
2023/06/06 06:22:54;;;;;;;2.65;2.20;;;;;;;;;;4999581;28;20223;-85
2023/06/06 06:25:22;;;;;;;3.80;2.35;;;;;;;;;;4996353;28;20254;-84
2023/06/06 06:27:50;;;;;;;2.40;2.20;;;;;;;;;;5005039;28;20212;-85
2023/06/06 06:30:18;;;;;;;3.10;2.10;;;;;;;;;;4988403;28;20220;-84
2023/06/06 06:32:46;;;;;;;2.83;2.30;;;;;;;;;;5016935;28;20247;-87
2023/06/06 06:35:15;;;;;;;2.50;2.30;;;;;;;;;;5008168;28;20248;-87
2023/06/06 06:37:41;;;;;;;2.40;2.20;;;;;;;;;;5016986;28;20228;-86
2023/06/06 06:40:10;;;;;;;2.47;2.20;;;;;;;;;;5001188;28;20996;-86
2023/06/06 06:42:40;;;;;;;3.50;2.03;;;;;;;;;;4990764;28;20216;-86
2023/06/06 06:45:21;;;;;;;2.88;2.45;;;;;;;;;;5004129;28;20217;-86
2023/06/06 06:47:46;;;;;;;2.65;2.28;;;;;;;;;;5004082;28;20231;-85
2023/06/06 06:50:14;;;;;;;2.55;2.35;;;;;;;;;;4999811;28;20329;-85
2023/06/06 06:52:39;;;;;;;2.28;2.13;;;;;;;;;;5019164;28;20705;-86
2023/06/06 06:55:06;;;;;;;2.25;2.05;;;;;;;;;;4983839;28;20216;-86
2023/06/06 06:57:31;;;;;;;2.05;1.85;;;;;;;;;;5002276;28;20220;-86
2023/06/06 07:00:00;;;;;;;2.13;1.90;;;;;;;;;;4997249;28;20916;-84
2023/06/06 07:02:27;;;;;;;2.50;2.10;;;;;;;;;;5017432;28;20223;-87
2023/06/06 07:04:57;;;;;;;2.90;2.13;;;;;;;;;;5003523;28;20700;-86
2023/06/06 07:07:26;;;;;;;2.20;2.00;;;;;;;;;;4995057;28;20568;-87
2023/06/06 07:09:52;;;;;;;2.38;2.17;;;;;;;;;;5000910;28;20224;-89
2023/06/06 07:12:17;;;;;;;2.30;1.88;;;;;;;;;;4985761;28;20227;-86
2023/06/06 07:14:45;;;;;;;1.92;1.83;;;;;;;;;;5005282;28;20220;-86
2023/06/06 07:17:15;;;;;;;2.30;2.08;;;;;;;;;;4991472;28;20311;-84
2023/06/06 07:19:49;;;;;;;3.03;1.88;;;;;;;;;;5001566;28;20224;-85
2023/06/06 07:22:14;;;;;;;2.55;1.85;;;;;;;;;;4998753;28;20630;-86
2023/06/06 07:24:43;;;;;;;2.30;2.10;;;;;;;;;;5017390;28;20216;-86
2023/06/06 07:27:18;;;;;;;3.45;2.10;;;;;;;;;;5016922;28;20246;-87
2023/06/06 07:29:43;;;;;;;2.55;2.10;;;;;;;;;;5001663;28;20212;-84
2023/06/06 07:32:12;;;;;;;2.97;1.75;;;;;;;;;;4991704;28;20224;-85
2023/06/06 07:34:37;;;;;;;2.38;2.15;;;;;;;;;;4985077;28;20235;-86
2023/06/06 07:37:06;;;;;;;2.75;2.20;;;;;;;;;;4999292;28;20225;-84
2023/06/06 07:39:32;;;;;;;1.90;1.80;;;;;;;;;;4996865;28;20682;-85
2023/06/06 07:42:00;;;;;;;1.65;1.55;;;;;;;;;;5001441;28;20239;-83
2023/06/06 07:44:25;;;;;;;2.13;1.40;;;;;;;;;;5013161;28;20228;-86
2023/06/06 07:46:51;;;;;;;1.67;1.58;;;;;;;;;;5011521;28;20271;-82
2023/06/06 07:49:19;;;;;;;2.13;1.50;;;;;;;;;;4995699;28;20239;-83
2023/06/06 07:51:48;;;;;;;2.38;1.73;;;;;;;;;;5000794;28;20228;-86
2023/06/06 07:54:19;;;;;;;1.85;1.67;;;;;;;;;;5000552;28;20212;-85
2023/06/06 07:56:44;;;;;;;1.70;1.60;;;;;;;;;;5003334;28;20239;-86
2023/06/06 07:59:10;;;;;;;2.22;1.65;;;;;;;;;;5006917;28;20213;-83
2023/06/06 08:01:38;;;;;;;2.17;1.58;;;;;;;;;;4998135;28;20271;-86
2023/06/06 08:04:07;;;;;;;3.42;1.75;;;;;;;;;;4986631;28;20216;-86
2023/06/06 08:06:37;;;;;;;1.75;1.52;;;;;;;;;;4985227;28;20208;-85
2023/06/06 08:09:08;;;;;;;4.78;1.92;;;;;;;;;;5003250;28;21576;-85
2023/06/06 08:11:38;;;;;;;2.03;1.80;;;;;;;;;;5000811;28;20237;-85
2023/06/06 08:14:03;;;;;;;1.63;1.52;;;;;;;;;;4997580;28;20269;-85
2023/06/06 08:16:31;;;;;;;2.63;1.90;;;;;;;;;;4982395;28;20213;-83
2023/06/06 08:18:57;;;;;;;1.92;1.67;;;;;;;;;;5000352;28;20212;-85
2023/06/06 08:21:23;;;;;;;2.33;1.80;;;;;;;;;;4996158;28;20228;-85
2023/06/06 08:23:50;;;;;;;2.50;1.90;;;;;;;;;;4983790;28;20212;-84
2023/06/06 08:26:24;;;;;;;3.20;1.90;;;;;;;;;;4980060;28;20274;-87
2023/06/06 08:28:54;;;;;;;1.70;1.60;;;;;;;;;;4999667;28;20230;-85
2023/06/06 08:31:23;;;;;;;1.60;1.50;;;;;;;;;;4999155;28;20224;-83
2023/06/06 08:33:49;;;;;;;3.72;1.80;;;;;;;;;;4981273;28;20300;-84
2023/06/06 08:36:17;;;;;;;2.45;2.00;;;;;;;;;;4998024;28;20216;-83
2023/06/06 08:38:47;;;;;;;2.30;1.70;;;;;;;;;;5002773;28;20212;-83
2023/06/06 08:41:13;;;;;;;2.20;1.63;;;;;;;;;;5012014;28;20217;-84
2023/06/06 08:43:41;;;;;;;1.80;1.70;;;;;;;;;;4988638;28;20216;-87
2023/06/06 08:46:06;;;;;;;2.13;1.75;;;;;;;;;;4992857;28;20236;-83
2023/06/06 08:48:36;;;;;;;1.80;1.65;;;;;;;;;;5006726;28;20267;-83
2023/06/06 08:51:04;;;;;;;2.08;1.70;;;;;;;;;;4988215;28;20574;-84
2023/06/06 08:53:30;;;;;;;1.80;1.70;;;;;;;;;;5002289;28;20237;-83
2023/06/06 08:55:59;;;;;;;3.40;1.83;;;;;;;;;;5019244;28;20609;-85
2023/06/06 08:58:26;;;;;;;2.88;1.90;;;;;;;;;;5003193;28;20228;-87
2023/06/06 09:00:51;;;;;;;3.05;1.90;;;;;;;;;;5001101;28;20204;-85
2023/06/06 09:03:22;;;;;;;4.25;2.00;;;;;;;;;;5001454;28;20239;-84
2023/06/06 09:05:51;;;;;;;2.33;2.08;;;;;;;;;;5001500;28;20223;-83
2023/06/06 09:08:19;;;;;;;1.80;1.70;;;;;;;;;;5015084;28;20216;-83
2023/06/06 09:10:45;;;;;;;4.38;2.05;;;;;;;;;;5015938;28;20399;-85
2023/06/06 09:13:11;;;;;;;3.00;2.00;;;;;;;;;;4984851;28;20224;-82
2023/06/06 09:15:36;;;;;;;2.75;2.00;;;;;;;;;;4994498;28;20640;-85
2023/06/06 09:18:04;;;;;;;2.20;2.00;;;;;;;;;;4983927;28;20366;-86
2023/06/06 09:20:33;;;;;;;3.03;1.80;;;;;;;;;;5030804;28;20246;-85
2023/06/06 09:23:00;;;;;;;2.00;1.73;;;;;;;;;;5001611;28;20227;-84
2023/06/06 09:25:29;;;;;;;3.25;1.83;;;;;;;;;;5000787;28;20254;-85
2023/06/06 09:28:04;;;;;;;3.03;1.85;;;;;;;;;;5014825;28;20220;-86
2023/06/06 09:30:30;;;;;;;2.13;1.90;;;;;;;;;;5013310;28;20242;-86
2023/06/06 09:33:01;;;;;;;1.95;1.80;;;;;;;;;;4984543;28;20691;-85
2023/06/06 09:35:34;;;;;;;2.00;1.83;;;;;;;;;;4997361;28;20299;-84
2023/06/06 09:38:22;;;;;;;2.20;1.88;;;;;;;;;;5021491;28;20220;-85
2023/06/06 09:40:55;;;;;;;2.60;2.08;;;;;;;;;;5007228;28;20226;-85
2023/06/06 09:43:23;;;;;;;2.38;2.17;;;;;;;;;;5017086;28;20227;-84
2023/06/06 09:45:58;;;;;;;2.30;2.10;;;;;;;;;;5005026;23;20287;-74
2023/06/06 09:48:28;;;;;;;2.35;2.03;;;;;;;;;;5025330;28;20223;-73
2023/06/06 09:50:55;;;;;;;2.80;2.10;;;;;;;;;;4988124;28;20232;-74
2023/06/06 09:53:27;;;;;;;2.15;1.95;;;;;;;;;;5002406;28;20224;-74
2023/06/06 09:55:56;;;;;;;2.20;1.95;;;;;;;;;;5001539;28;20251;-74
2023/06/06 09:58:25;;;;;;;2.25;2.00;;;;;;;;;;5016389;28;20255;-73
2023/06/06 10:00:53;;;;;;;3.15;2.03;;;;;;;;;;5002879;28;20724;-73
2023/06/06 10:03:22;;;;;;;2.13;2.00;;;;;;;;;;5018226;28;20230;-74
2023/06/06 10:05:50;;;;;;;1.88;1.77;;;;;;;;;;5003893;28;20301;-74
2023/06/06 10:08:19;;;;;;;2.30;2.00;;;;;;;;;;5021658;28;20717;-76
2023/06/06 10:10:49;;;;;;;2.42;2.22;;;;;;;;;;4998861;28;21094;-78
2023/06/06 10:13:22;;;;;;;1.85;1.73;;;;;;;;;;5022951;28;20285;-76
2023/06/06 10:15:47;;;;;;;2.08;1.88;;;;;;;;;;5005572;28;20236;-77
2023/06/06 10:18:15;;;;;;;2.38;2.17;;;;;;;;;;5003398;28;20231;-72
2023/06/06 10:20:44;;;;;;;2.08;1.90;;;;;;;;;;5003874;28;20294;-75
2023/06/06 10:23:09;;;;;;;1.95;1.85;;;;;;;;;;4996063;28;20601;-73
2023/06/06 10:25:37;;;;;;;2.08;1.80;;;;;;;;;;5016115;28;20245;-74
2023/06/06 10:28:25;;;;;;;1.90;1.80;;;;;;;;;;5003972;28;20229;-74
2023/06/06 10:31:20;;;;;;;2.75;1.95;;;;;;;;;;5021368;28;20640;-76
2023/06/06 10:33:53;;;;;;;2.13;1.92;;;;;;;;;;5004526;28;20294;-73
2023/06/06 10:36:20;;;;;;;2.03;1.85;;;;;;;;;;5028840;28;20220;-74
2023/06/06 10:39:23;;;;;;;2.25;2.03;;;;;;;;;;4986715;28;20298;-74
2023/06/06 10:41:56;;;;;;;2.03;1.92;;;;;;;;;;5018283;28;20576;-74
2023/06/06 10:44:43;;;;;;;5.05;1.90;;;;;;;;;;5016039;28;20225;-74
2023/06/06 10:47:23;;;;;;;2.30;2.10;;;;;;;;;;5034809;28;20307;-77
2023/06/06 10:50:08;;;;;;;2.40;2.03;;;;;;;;;;5017350;28;20232;-74
2023/06/06 10:52:56;;;;;;;2.50;2.13;;;;;;;;;;5017979;28;20240;-73
2023/06/06 10:55:25;;;;;;;2.35;2.15;;;;;;;;;;5033459;28;20223;-74
2023/06/06 10:58:03;;;;;;;2.53;2.00;;;;;;;;;;5020768;28;20636;-75
2023/06/06 11:00:33;;;;;;;2.15;1.95;;;;;;;;;;5033799;28;20694;-74
2023/06/06 11:03:08;;;;;;;2.53;2.08;;;;;;;;;;5016907;28;20229;-74
2023/06/06 11:05:57;;;;;;;2.53;2.13;;;;;;;;;;5004351;28;20223;-74
2023/06/06 11:08:49;;;;;;;2.30;1.90;;;;;;;;;;5031224;28;20308;-74
2023/06/06 11:11:15;;;;;;;2.05;1.95;;;;;;;;;;5001130;28;20239;-74
2023/06/06 11:13:53;;;;;;;2.08;1.92;;;;;;;;;;5017288;28;20302;-74
2023/06/06 11:16:50;;;;;;;2.10;1.85;;;;;;;;;;5019489;28;20274;-74
2023/06/06 11:19:21;;;;;;;1.88;1.77;;;;;;;;;;5014570;28;20656;-73
2023/06/06 11:21:48;;;;;;;1.88;1.77;;;;;;;;;;5011322;28;20290;-73
2023/06/06 11:24:15;;;;;;;1.98;1.88;;;;;;;;;;5022742;28;20293;-73
2023/06/06 11:26:44;;;;;;;2.22;2.03;;;;;;;;;;5006534;28;20224;-74
2023/06/06 11:29:10;;;;;;;3.72;2.10;;;;;;;;;;4993910;28;20599;-73
2023/06/06 11:31:37;;;;;;;2.15;1.95;;;;;;;;;;5018819;28;20247;-75
2023/06/06 11:34:06;;;;;;;3.42;1.90;;;;;;;;;;5001996;28;20216;-76
2023/06/06 11:36:33;;;;;;;1.77;1.67;;;;;;;;;;4995718;28;20223;-74
2023/06/06 11:39:01;;;;;;;1.90;1.80;;;;;;;;;;4987195;28;20298;-74
2023/06/06 11:41:30;;;;;;;3.33;2.20;;;;;;;;;;4995310;28;20227;-73
2023/06/06 11:43:56;;;;;;;1.80;1.70;;;;;;;;;;4984856;28;20224;-73
2023/06/06 11:46:24;;;;;;;3.78;2.15;;;;;;;;;;5013589;28;20904;-73
2023/06/06 11:48:59;;;;;;;2.20;2.00;;;;;;;;;;5000509;28;20754;-73
2023/06/06 11:51:25;;;;;;;2.95;2.28;;;;;;;;;;5002815;28;20231;-73
2023/06/06 11:53:51;;;;;;;2.03;1.92;;;;;;;;;;4996967;28;20244;-72
2023/06/06 11:56:17;;;;;;;2.33;2.13;;;;;;;;;;4998089;28;20212;-74
2023/06/06 11:58:42;;;;;;;2.22;1.88;;;;;;;;;;4987186;28;20307;-74
2023/06/06 12:01:11;;;;;;;1.92;1.83;;;;;;;;;;5003271;28;20613;-76
2023/06/06 12:03:40;;;;;;;2.10;1.90;;;;;;;;;;5001903;28;20227;-75
2023/06/06 12:06:06;;;;;;;2.00;1.90;;;;;;;;;;5014619;28;20699;-75
2023/06/06 12:08:37;;;;;;;2.40;2.00;;;;;;;;;;5018861;28;20706;-74
2023/06/06 12:11:24;;;;;;;2.75;2.10;;;;;;;;;;5019440;28;20224;-74
2023/06/06 12:13:51;;;;;;;2.65;2.10;;;;;;;;;;5020402;28;20258;-76
2023/06/06 12:16:26;;;;;;;2.25;2.00;;;;;;;;;;5033513;28;20239;-73
2023/06/06 12:18:54;;;;;;;2.28;2.08;;;;;;;;;;5019742;28;20225;-72
2023/06/06 12:21:20;;;;;;;2.22;1.90;;;;;;;;;;5011124;28;20438;-72
2023/06/06 12:23:45;;;;;;;2.17;1.98;;;;;;;;;;5017468;28;20223;-74
2023/06/06 12:26:18;;;;;;;2.22;2.03;;;;;;;;;;4992371;28;20275;-72
2023/06/06 12:28:58;;;;;;;4.15;2.03;;;;;;;;;;5002142;28;20224;-72
2023/06/06 12:31:34;;;;;;;2.42;2.08;;;;;;;;;;5014898;28;20411;-70
2023/06/06 12:34:00;;;;;;;2.10;2.00;;;;;;;;;;5025167;28;20772;-72
2023/06/06 12:36:31;;;;;;;2.20;2.00;;;;;;;;;;4998690;28;20226;-71
2023/06/06 12:39:00;;;;;;;2.08;1.88;;;;;;;;;;5020540;28;20236;-71
2023/06/06 12:41:41;;;;;;;2.38;2.17;;;;;;;;;;5007949;28;20685;-70
2023/06/06 12:44:10;;;;;;;2.33;2.00;;;;;;;;;;5009706;28;20582;-71
2023/06/06 12:46:39;;;;;;;2.03;1.92;;;;;;;;;;5017781;28;20278;-73
2023/06/06 12:49:10;;;;;;;1.80;1.70;;;;;;;;;;5020802;28;20354;-72
2023/06/06 12:51:39;;;;;;;2.10;1.90;;;;;;;;;;5003850;28;20222;-71
2023/06/06 12:54:08;;;;;;;2.60;2.10;;;;;;;;;;5020054;28;20235;-72
2023/06/06 12:56:34;;;;;;;2.75;2.20;;;;;;;;;;5008087;28;20246;-71
2023/06/06 12:59:00;;;;;;;2.30;2.10;;;;;;;;;;5008293;28;20232;-72
2023/06/06 13:01:26;;;;;;;1.98;1.88;;;;;;;;;;5024602;28;20227;-72
2023/06/06 13:03:57;;;;;;;2.65;2.45;;;;;;;;;;4993378;28;20841;-71
2023/06/06 13:06:27;;;;;;;2.00;1.90;;;;;;;;;;4992628;28;20236;-71
2023/06/06 13:08:52;;;;;;;2.10;1.90;;;;;;;;;;5016144;28;20220;-72
2023/06/06 13:11:18;;;;;;;3.10;2.00;;;;;;;;;;5016467;28;20232;-73
2023/06/06 13:13:44;;;;;;;2.17;1.90;;;;;;;;;;5018842;28;20231;-73
2023/06/06 13:16:10;;;;;;;2.50;2.20;;;;;;;;;;4984126;28;20212;-72
2023/06/06 13:18:37;;;;;;;2.22;1.92;;;;;;;;;;5020503;28;20228;-73
2023/06/06 13:21:06;;;;;;;3.47;2.10;;;;;;;;;;5030075;28;20207;-74
2023/06/06 13:23:36;;;;;;;5.38;2.30;;;;;;;;;;5004744;28;20188;-72
2023/06/06 13:26:04;;;;;;;3.22;1.80;;;;;;;;;;4986522;28;20300;-73
2023/06/06 13:28:30;;;;;;;2.83;2.03;;;;;;;;;;4993177;28;20221;-73
2023/06/06 13:31:01;;;;;;;2.53;2.33;;;;;;;;;;5021804;28;20224;-72
2023/06/06 13:33:27;;;;;;;2.55;2.00;;;;;;;;;;5019838;28;20275;-72
2023/06/06 13:35:52;;;;;;;2.17;2.00;;;;;;;;;;5024111;28;20221;-73
2023/06/06 13:38:23;;;;;;;3.05;2.05;;;;;;;;;;4992559;28;20685;-74
2023/06/06 13:40:50;;;;;;;2.20;1.98;;;;;;;;;;5017341;28;20228;-72
2023/06/06 13:43:18;;;;;;;2.42;2.22;;;;;;;;;;5004677;28;20208;-72
2023/06/06 13:45:46;;;;;;;2.38;2.10;;;;;;;;;;5018888;28;20674;-72
2023/06/06 13:48:14;;;;;;;2.50;2.30;;;;;;;;;;5015588;28;20258;-72
2023/06/06 13:50:40;;;;;;;5.53;2.17;;;;;;;;;;5017439;28;20272;-72
2023/06/06 13:53:11;;;;;;;4.05;2.20;;;;;;;;;;5015450;28;20295;-72
2023/06/06 13:55:37;;;;;;;2.70;2.10;;;;;;;;;;5034104;28;20227;-71
2023/06/06 13:58:03;;;;;;;2.30;2.10;;;;;;;;;;5017928;28;20603;-71
2023/06/06 14:00:30;;;;;;;2.50;2.00;;;;;;;;;;5016605;28;20225;-70
2023/06/06 14:02:59;;;;;;;3.60;2.00;;;;;;;;;;5015410;28;20217;-73
2023/06/06 14:05:27;;;;;;;1.90;1.80;;;;;;;;;;5022474;28;20217;-72
2023/06/06 14:07:55;;;;;;;4.13;1.95;;;;;;;;;;5016768;28;20270;-71
2023/06/06 14:10:26;;;;;;;2.40;2.20;;;;;;;;;;5005528;28;20230;-71
2023/06/06 14:12:54;;;;;;;3.13;1.90;;;;;;;;;;5024291;28;20227;-70
2023/06/06 14:15:20;;;;;;;2.42;1.90;;;;;;;;;;5034499;28;20275;-71
2023/06/06 14:17:47;;;;;;;3.20;1.85;;;;;;;;;;5017169;28;20217;-71
2023/06/06 14:20:20;;;;;;;2.20;2.00;;;;;;;;;;5003175;28;20254;-71
2023/06/06 14:22:47;;;;;;;2.40;2.20;;;;;;;;;;5006615;28;20247;-72
2023/06/06 14:25:15;;;;;;;2.97;2.10;;;;;;;;;;5018840;28;20608;-73
2023/06/06 14:27:41;;;;;;;2.88;2.03;;;;;;;;;;5018962;28;20217;-73
2023/06/06 14:30:12;;;;;;;2.25;2.05;;;;;;;;;;5015485;28;20212;-72
2023/06/06 14:32:40;;;;;;;3.28;2.20;;;;;;;;;;5003391;28;20228;-72
2023/06/06 14:35:11;;;;;;;2.20;2.00;;;;;;;;;;5001979;28;20406;-72
2023/06/06 14:37:37;;;;;;;2.47;2.28;;;;;;;;;;5001830;28;20227;-72
2023/06/06 14:40:10;;;;;;;3.90;2.00;;;;;;;;;;5004918;28;20239;-73
2023/06/06 14:42:41;;;;;;;2.30;2.10;;;;;;;;;;5020705;28;20216;-72
2023/06/06 14:45:09;;;;;;;3.25;2.00;;;;;;;;;;5032646;28;20212;-72
2023/06/06 14:47:38;;;;;;;3.15;2.25;;;;;;;;;;5022282;28;20221;-71
2023/06/06 14:50:08;;;;;;;2.17;2.00;;;;;;;;;;5026541;28;20232;-72
2023/06/06 14:52:36;;;;;;;3.10;2.50;;;;;;;;;;5003150;28;20233;-72